»·PEaware :: RNGR810 KNGP-KNGP

RNGR810 :: KNGP-KNGP

FLIGHT INFORMATION

Flight Status: Arrived
Operator: Unknown
More flights by this operator :: More flights under this callsign
Pilot: USN Avenger (31125)
Aircraft: BEECH AIRCRAFT T-6A TEXAN
(TEX2)
More flights by this aircraft type
Origin: KNGP Corpus Christi NAS/Truax
United States
Destination: KNGP Corpus Christi NAS/Truax
United States
More flights between these airports :: More routes between these airports
Route: MUST KRKP
File this flight plan on PilotEdge
Remarks: 18 PLEASE
Altitude:
(Current/Filed)
5,500ft
Speed:
(Current/Filed)
240kts
Departed: 14-Nov-23 09:08 AM
Arrived: 14-Nov-23 09:56 AM
Distance/Time
Traveled:
1nm/0:48
Distance/Time
To Go:
Arrived

Flight Plot

Page will automatically refresh every two minutes.

Flight plan parsing failed; only flown route is shown


Map Options




Map Legend


Flown Route
Filed Route
Departure Airport
Arrival Airport
Navaid (VOR, NDB)
Fix

Horizontal Profiles

Position Reports

Time Latitude Longitude Heading Altitude Ground
Speed
14-Nov-23 09:02 27.698532 -97.284282 159 22ft 0kts
14-Nov-23 09:03 27.698391 -97.284220 159 22ft 5kts
14-Nov-23 09:04 27.698477 -97.285565 338 22ft 8kts
14-Nov-23 09:05 27.698285 -97.287827 226 22ft 17kts
14-Nov-23 09:06 27.695756 -97.290930 222 22ft 0kts
14-Nov-23 09:07 27.695395 -97.291304 222 22ft 7kts
14-Nov-23 09:08 27.693631 -97.290004 140 22ft 66kts
14-Nov-23 09:09 27.664781 -97.255365 131 663ft 216kts
14-Nov-23 09:10 27.639009 -97.194728 112 923ft 218kts
14-Nov-23 09:11 27.660903 -97.143742 30 2830ft 218kts
14-Nov-23 09:12 27.709167 -97.104259 38 4947ft 217kts
14-Nov-23 09:13 27.760544 -97.060870 36 5813ft 254kts
14-Nov-23 09:14 27.821829 -97.016422 27 5653ft 278kts
14-Nov-23 09:15 27.889320 -96.974203 33 5425ft 274kts
14-Nov-23 09:16 27.954085 -96.931298 10 5527ft 268kts
14-Nov-23 09:17 27.968987 -96.989060 217 6364ft 244kts
14-Nov-23 09:18 27.915801 -97.019951 212 9410ft 190kts
14-Nov-23 09:19 27.864916 -97.056751 203 10453ft 244kts
14-Nov-23 09:20 27.876377 -97.020795 7 10237ft 246kts
14-Nov-23 09:21 27.865726 -96.994759 197 9168ft 253kts
14-Nov-23 09:22 27.857339 -97.040656 13 7248ft 254kts
14-Nov-23 09:23 27.922873 -97.018829 13 6323ft 240kts
14-Nov-23 09:24 27.986886 -97.004830 7 4620ft 235kts
14-Nov-23 09:25 28.050816 -97.000530 359 3021ft 225kts
14-Nov-23 09:26 28.112564 -96.999643 336 1894ft 209kts
14-Nov-23 09:27 28.142341 -97.049511 215 1718ft 198kts
14-Nov-23 09:28 28.093586 -97.039743 192 1122ft 179kts
14-Nov-23 09:29 28.092914 -97.045954 12 876ft 122kts
14-Nov-23 09:29 28.091467 -97.039601 215 121ft 115kts
14-Nov-23 09:31 28.071836 -97.054287 2 1080ft 133kts
14-Nov-23 09:32 28.101893 -97.044751 112 767ft 130kts
14-Nov-23 09:33 28.073800 -97.042568 192 563ft 103kts
14-Nov-23 09:34 28.089850 -97.048857 10 955ft 129kts
14-Nov-23 09:34 28.090159 -97.039096 190 27ft 85kts
14-Nov-23 09:35 28.076370 -97.052198 358 949ft 138kts
14-Nov-23 09:36 28.095867 -97.038613 186 180ft 117kts
14-Nov-23 09:38 28.065848 -97.051549 298 1132ft 125kts
14-Nov-23 09:39 28.100918 -97.044533 60 694ft 126kts
14-Nov-23 09:39 28.079955 -97.041302 193 144ft 105kts
14-Nov-23 09:40 28.081070 -97.052720 3 797ft 141kts
14-Nov-23 09:41 28.122138 -97.039322 50 672ft 171kts
14-Nov-23 09:42 28.092061 -97.000469 178 1643ft 210kts
14-Nov-23 09:43 28.033028 -97.006463 196 1560ft 209kts
14-Nov-23 09:44 27.981924 -97.036237 216 1599ft 214kts
14-Nov-23 09:45 27.944648 -97.084830 245 2031ft 204kts
14-Nov-23 09:46 27.895552 -97.124357 213 1612ft 220kts
14-Nov-23 09:47 27.842724 -97.159542 202 1089ft 230kts
14-Nov-23 09:48 27.780011 -97.165771 182 1157ft 226kts
14-Nov-23 09:49 27.751175 -97.209662 266 1337ft 178kts
14-Nov-23 09:50 27.744537 -97.269584 264 1274ft 207kts
14-Nov-23 09:51 27.715367 -97.306033 158 1041ft 192kts
14-Nov-23 09:52 27.682306 -97.265089 27 920ft 167kts
14-Nov-23 09:53 27.709050 -97.283364 308 767ft 103kts
14-Nov-23 09:54 27.692386 -97.288024 144 23ft 81kts
14-Nov-23 09:55 27.687685 -97.281488 36 22ft 0kts

Navigation Log

Ident Type
Flight plan parsing failed, navigation log unavailable